Time;durP1;ratioP1;P1;durP2;ratioP2;P2;SDS_P1;SDS_P2;PMS_P1;PMS_P2;Temp;Humidity;BMP_temperature;BMP_pressure;BME280_temperature;BME280_humidity;BME280_pressure;Samples;Min_cycle;Max_cycle;Signal;HPM_P1;HPM_P2
2021/01/20 00:01:27;;;;;;;2.70;2.60;;;;;;;;;;5062192;28;20200;-42
2021/01/20 00:03:52;;;;;;;2.70;2.60;;;;;;;;;;5069071;28;20172;-42
2021/01/20 00:06:17;;;;;;;2.80;2.60;;;;;;;;;;5068671;28;20586;-43
2021/01/20 00:08:42;;;;;;;2.83;2.73;;;;;;;;;;5064752;28;20181;-43
2021/01/20 00:11:07;;;;;;;2.97;2.78;;;;;;;;;;5063318;28;20192;-43
2021/01/20 00:13:33;;;;;;;2.95;2.75;;;;;;;;;;5063914;28;20188;-43
2021/01/20 00:15:58;;;;;;;2.70;2.50;;;;;;;;;;5063691;28;20649;-42
2021/01/20 00:18:23;;;;;;;2.57;2.47;;;;;;;;;;5059268;28;20282;-43
2021/01/20 00:20:49;;;;;;;3.10;2.90;;;;;;;;;;5067128;28;20545;-43
2021/01/20 00:23:14;;;;;;;2.90;2.70;;;;;;;;;;5064349;28;20198;-43
2021/01/20 00:25:39;;;;;;;2.93;2.73;;;;;;;;;;5067938;28;20588;-43
2021/01/20 00:28:04;;;;;;;3.10;2.83;;;;;;;;;;5068685;28;20265;-43
2021/01/20 00:30:29;;;;;;;2.80;2.60;;;;;;;;;;5070380;28;20565;-43
2021/01/20 00:32:55;;;;;;;2.67;2.47;;;;;;;;;;5071353;28;20668;-43
2021/01/20 00:35:23;;;;;;;2.97;2.78;;;;;;;;;;5067002;28;20168;-43
2021/01/20 00:37:48;;;;;;;2.90;2.70;;;;;;;;;;5061831;28;20207;-43
2021/01/20 00:40:14;;;;;;;3.37;3.17;;;;;;;;;;5068250;28;20722;-43
2021/01/20 00:42:39;;;;;;;3.30;3.10;;;;;;;;;;5069197;28;20218;-43
2021/01/20 00:45:05;;;;;;;3.60;3.30;;;;;;;;;;5063895;28;20181;-43
2021/01/20 00:47:30;;;;;;;2.93;2.73;;;;;;;;;;5067767;28;20262;-43
2021/01/20 00:49:55;;;;;;;3.00;2.80;;;;;;;;;;5063726;28;21183;-43
2021/01/20 00:52:20;;;;;;;2.83;2.60;;;;;;;;;;5069240;28;20182;-43
2021/01/20 00:54:45;;;;;;;3.30;3.10;;;;;;;;;;5065551;28;20679;-42
2021/01/20 00:57:10;;;;;;;2.97;2.78;;;;;;;;;;5067275;28;20191;-42
2021/01/20 00:59:36;;;;;;;3.75;3.55;;;;;;;;;;5062749;28;20252;-42
2021/01/20 01:02:01;;;;;;;3.00;2.80;;;;;;;;;;5063677;28;20920;-42
2021/01/20 01:04:26;;;;;;;3.00;2.80;;;;;;;;;;5065414;28;20218;-42
2021/01/20 01:06:51;;;;;;;2.90;2.80;;;;;;;;;;5066807;28;20551;-43
2021/01/20 01:09:17;;;;;;;3.63;3.42;;;;;;;;;;5060995;28;20653;-43
2021/01/20 01:11:42;;;;;;;3.17;3.03;;;;;;;;;;5068409;28;20257;-43
2021/01/20 01:14:07;;;;;;;3.38;3.17;;;;;;;;;;5065489;28;20282;-41
2021/01/20 01:16:32;;;;;;;3.42;3.20;;;;;;;;;;5064416;28;20179;-42
2021/01/20 01:18:57;;;;;;;3.40;3.20;;;;;;;;;;5062337;28;20215;-43
2021/01/20 01:21:22;;;;;;;3.33;3.13;;;;;;;;;;5061731;28;20167;-43
2021/01/20 01:23:47;;;;;;;3.42;3.22;;;;;;;;;;5059188;28;20236;-44
2021/01/20 01:26:13;;;;;;;4.35;3.95;;;;;;;;;;5063453;28;20562;-42
2021/01/20 01:28:39;;;;;;;3.90;3.60;;;;;;;;;;5066203;28;20179;-43
2021/01/20 01:31:04;;;;;;;4.00;3.80;;;;;;;;;;5067818;28;20226;-42
2021/01/20 01:33:31;;;;;;;3.40;3.20;;;;;;;;;;5063191;28;20659;-43
2021/01/20 01:35:56;;;;;;;4.03;3.83;;;;;;;;;;5062965;28;20585;-43
2021/01/20 01:38:21;;;;;;;4.47;3.70;;;;;;;;;;5066780;28;21116;-43
2021/01/20 01:40:47;;;;;;;4.00;3.60;;;;;;;;;;5065387;28;20666;-43
2021/01/20 01:43:13;;;;;;;3.90;3.70;;;;;;;;;;5064143;28;20177;-43
2021/01/20 01:45:38;;;;;;;3.50;3.30;;;;;;;;;;5065026;28;20733;-43
2021/01/20 01:48:03;;;;;;;4.00;3.80;;;;;;;;;;5059865;28;21148;-42
2021/01/20 01:50:29;;;;;;;3.17;2.97;;;;;;;;;;5060394;28;20656;-43
2021/01/20 01:52:54;;;;;;;3.87;3.43;;;;;;;;;;5066201;28;20211;-43
2021/01/20 01:55:19;;;;;;;3.80;3.50;;;;;;;;;;5063734;28;20179;-42
2021/01/20 01:57:44;;;;;;;3.87;3.57;;;;;;;;;;5061740;28;20199;-43
2021/01/20 02:00:10;;;;;;;3.90;3.70;;;;;;;;;;5064842;28;20236;-43
2021/01/20 02:02:36;;;;;;;4.27;3.97;;;;;;;;;;5062088;28;20179;-43
2021/01/20 02:05:01;;;;;;;4.00;3.70;;;;;;;;;;5058201;28;20168;-43
2021/01/20 02:07:27;;;;;;;4.30;4.00;;;;;;;;;;5061163;28;20689;-43
2021/01/20 02:09:53;;;;;;;3.47;3.27;;;;;;;;;;5067707;28;20175;-42
2021/01/20 02:12:29;;;;;;;4.97;4.67;;;;;;;;;;5064434;28;20637;-43
2021/01/20 02:15:03;;;;;;;5.37;4.93;;;;;;;;;;5058599;28;20190;-42
2021/01/20 02:17:47;;;;;;;4.63;4.30;;;;;;;;;;5059431;28;20999;-42
2021/01/20 02:20:21;;;;;;;5.20;4.80;;;;;;;;;;5061203;28;20947;-43
2021/01/20 02:22:50;;;;;;;6.63;4.63;;;;;;;;;;5060419;28;20598;-43
2021/01/20 02:25:18;;;;;;;5.43;4.90;;;;;;;;;;5066328;28;20661;-42
2021/01/20 02:28:02;;;;;;;3.90;3.60;;;;;;;;;;5066559;28;20670;-42
2021/01/20 02:30:28;;;;;;;4.80;4.50;;;;;;;;;;5055793;28;20615;-43
2021/01/20 02:32:54;;;;;;;5.13;4.70;;;;;;;;;;5066362;28;21351;-43
2021/01/20 02:35:20;;;;;;;4.87;4.57;;;;;;;;;;5061368;28;20608;-43
2021/01/20 02:37:46;;;;;;;4.50;4.20;;;;;;;;;;5059085;28;21199;-43
2021/01/20 02:40:12;;;;;;;3.63;3.43;;;;;;;;;;5063535;28;20597;-43
2021/01/20 02:42:41;;;;;;;4.40;4.10;;;;;;;;;;5061831;28;20246;-43
2021/01/20 02:45:06;;;;;;;4.37;3.97;;;;;;;;;;5059772;28;20206;-42
2021/01/20 02:47:32;;;;;;;5.53;5.13;;;;;;;;;;5066412;28;20628;-43
2021/01/20 02:49:57;;;;;;;4.97;4.57;;;;;;;;;;5068426;28;20183;-43
2021/01/20 02:52:41;;;;;;;4.85;4.45;;;;;;;;;;5064127;28;20174;-43
2021/01/20 02:55:08;;;;;;;5.57;5.07;;;;;;;;;;5056614;28;20188;-43
2021/01/20 02:57:34;;;;;;;4.43;4.13;;;;;;;;;;5066519;28;20715;-43
2021/01/20 03:00:01;;;;;;;4.57;4.27;;;;;;;;;;5062073;28;20608;-43
2021/01/20 03:02:27;;;;;;;4.50;4.20;;;;;;;;;;5058181;28;20594;-43
2021/01/20 03:04:53;;;;;;;5.33;3.60;;;;;;;;;;5065287;28;20600;-43
2021/01/20 03:07:19;;;;;;;3.80;3.53;;;;;;;;;;5062629;28;20608;-43
2021/01/20 03:09:44;;;;;;;3.00;2.80;;;;;;;;;;5053421;28;20180;-43
2021/01/20 03:12:09;;;;;;;2.70;2.50;;;;;;;;;;5061418;28;20608;-43
2021/01/20 03:14:35;;;;;;;3.37;3.17;;;;;;;;;;5061436;28;20182;-43
2021/01/20 03:17:00;;;;;;;3.60;3.37;;;;;;;;;;5067998;28;20638;-43
2021/01/20 03:19:25;;;;;;;3.30;3.10;;;;;;;;;;5064402;28;20597;-43
2021/01/20 03:21:51;;;;;;;3.80;3.60;;;;;;;;;;5063945;28;20167;-43
2021/01/20 03:24:16;;;;;;;3.70;3.40;;;;;;;;;;5062477;28;20562;-42
2021/01/20 03:26:41;;;;;;;3.40;3.20;;;;;;;;;;5056293;28;20221;-43
2021/01/20 03:29:06;;;;;;;4.43;4.03;;;;;;;;;;5064421;28;20592;-42
2021/01/20 03:31:31;;;;;;;3.40;3.20;;;;;;;;;;5062607;28;20172;-43
2021/01/20 03:33:57;;;;;;;3.13;2.93;;;;;;;;;;5064183;28;20175;-43
2021/01/20 03:36:22;;;;;;;3.10;2.90;;;;;;;;;;5066136;28;20176;-43
2021/01/20 03:38:47;;;;;;;2.87;2.67;;;;;;;;;;5065622;28;20211;-42
2021/01/20 03:41:12;;;;;;;3.20;2.90;;;;;;;;;;5070493;28;20195;-42
2021/01/20 03:43:37;;;;;;;2.70;2.50;;;;;;;;;;5065035;28;20180;-43
2021/01/20 03:46:02;;;;;;;3.72;3.13;;;;;;;;;;5065375;28;20171;-43
2021/01/20 03:48:28;;;;;;;3.40;3.10;;;;;;;;;;5066406;28;20191;-43
2021/01/20 03:50:53;;;;;;;3.10;2.90;;;;;;;;;;5066442;28;20179;-43
2021/01/20 03:53:18;;;;;;;3.10;2.80;;;;;;;;;;5066338;28;20183;-43
2021/01/20 03:55:43;;;;;;;3.47;3.27;;;;;;;;;;5069342;28;20186;-43
2021/01/20 03:58:09;;;;;;;3.27;3.10;;;;;;;;;;5069311;28;20210;-43
2021/01/20 04:00:34;;;;;;;3.10;2.90;;;;;;;;;;5063714;28;20193;-43
2021/01/20 04:02:59;;;;;;;3.28;2.97;;;;;;;;;;5066456;28;20170;-43
2021/01/20 04:05:24;;;;;;;2.97;2.77;;;;;;;;;;5061435;28;20282;-43
2021/01/20 04:07:50;;;;;;;3.97;3.67;;;;;;;;;;5064728;28;20198;-42
2021/01/20 04:10:15;;;;;;;4.03;3.63;;;;;;;;;;5065306;28;20231;-43
2021/01/20 04:12:40;;;;;;;2.50;2.30;;;;;;;;;;5061614;28;20216;-43
2021/01/20 04:15:06;;;;;;;2.90;2.70;;;;;;;;;;5058059;28;20180;-43
2021/01/20 04:17:31;;;;;;;3.20;3.00;;;;;;;;;;5066480;28;20290;-42
2021/01/20 04:19:57;;;;;;;3.23;3.03;;;;;;;;;;5066857;28;20589;-43
2021/01/20 04:22:22;;;;;;;3.67;3.37;;;;;;;;;;5066986;28;20168;-43
2021/01/20 04:24:47;;;;;;;3.60;3.30;;;;;;;;;;5070846;28;20239;-42
2021/01/20 04:27:12;;;;;;;3.92;3.63;;;;;;;;;;5063521;28;20164;-43
2021/01/20 04:29:37;;;;;;;4.50;3.77;;;;;;;;;;5063198;28;20669;-43
2021/01/20 04:32:02;;;;;;;4.78;4.35;;;;;;;;;;5063503;28;20167;-43
2021/01/20 04:34:28;;;;;;;4.63;4.27;;;;;;;;;;5063165;28;20186;-43
2021/01/20 04:36:53;;;;;;;3.97;3.70;;;;;;;;;;5069971;28;20248;-43
2021/01/20 04:39:18;;;;;;;4.87;4.57;;;;;;;;;;5065163;28;20204;-42
2021/01/20 04:41:43;;;;;;;5.65;5.15;;;;;;;;;;5063929;28;20167;-42
2021/01/20 04:44:08;;;;;;;5.10;4.70;;;;;;;;;;5065392;28;20239;-42
2021/01/20 04:46:34;;;;;;;5.90;5.40;;;;;;;;;;5065816;28;20167;-42
2021/01/20 04:49:00;;;;;;;5.97;5.47;;;;;;;;;;5069889;28;20180;-42
2021/01/20 04:51:26;;;;;;;7.10;6.50;;;;;;;;;;5069308;28;20632;-42
2021/01/20 04:53:53;;;;;;;6.87;6.30;;;;;;;;;;5061542;28;20755;-42
2021/01/20 04:56:19;;;;;;;6.87;6.27;;;;;;;;;;5057996;28;21174;-43
2021/01/20 04:58:44;;;;;;;8.70;6.70;;;;;;;;;;5059929;28;20641;-43
2021/01/20 05:01:10;;;;;;;7.83;7.23;;;;;;;;;;5063560;28;20604;-42
2021/01/20 05:03:35;;;;;;;8.60;7.70;;;;;;;;;;5066262;28;20186;-42
2021/01/20 05:06:00;;;;;;;8.82;8.13;;;;;;;;;;5059093;28;20375;-43
2021/01/20 05:08:25;;;;;;;8.17;7.47;;;;;;;;;;5058790;28;20184;-43
2021/01/20 05:10:50;;;;;;;7.83;7.23;;;;;;;;;;5066650;28;20176;-42
2021/01/20 05:13:22;;;;;;;9.03;8.20;;;;;;;;;;5058675;28;20174;-42
2021/01/20 05:15:47;;;;;;;8.53;7.70;;;;;;;;;;5062155;28;20184;-42
2021/01/20 05:18:12;;;;;;;8.50;7.80;;;;;;;;;;5063610;28;20660;-42
2021/01/20 05:20:38;;;;;;;9.27;8.43;;;;;;;;;;5067887;28;20911;-43
2021/01/20 05:23:03;;;;;;;7.82;7.13;;;;;;;;;;5062194;28;20163;-43
2021/01/20 05:25:29;;;;;;;8.13;7.43;;;;;;;;;;5058959;28;20296;-43
2021/01/20 05:27:54;;;;;;;6.20;5.80;;;;;;;;;;5062559;28;20285;-43
2021/01/20 05:30:19;;;;;;;8.70;7.93;;;;;;;;;;5068664;28;20585;-43
2021/01/20 05:32:53;;;;;;;8.60;7.80;;;;;;;;;;5067224;28;20178;-43
2021/01/20 05:35:19;;;;;;;8.97;8.13;;;;;;;;;;5062818;28;20209;-42
2021/01/20 05:37:45;;;;;;;8.30;7.60;;;;;;;;;;5061342;28;20682;-42
2021/01/20 05:40:12;;;;;;;7.53;6.83;;;;;;;;;;5058504;28;21076;-43
2021/01/20 05:42:49;;;;;;;6.87;6.27;;;;;;;;;;5063483;28;20183;-43
2021/01/20 05:45:14;;;;;;;8.07;7.37;;;;;;;;;;5059069;28;20633;-43
2021/01/20 05:47:59;;;;;;;7.17;6.57;;;;;;;;;;5064141;28;20641;-43
2021/01/20 05:50:24;;;;;;;7.83;7.23;;;;;;;;;;5066707;28;20656;-42
2021/01/20 05:53:08;;;;;;;9.02;8.23;;;;;;;;;;5062130;28;21156;-42
2021/01/20 05:55:34;;;;;;;8.37;7.63;;;;;;;;;;5070023;28;20641;-43
2021/01/20 05:57:59;;;;;;;9.10;8.30;;;;;;;;;;5060005;28;20637;-43
2021/01/20 06:00:25;;;;;;;8.93;8.13;;;;;;;;;;5063069;28;20175;-43
2021/01/20 06:02:54;;;;;;;8.70;8.00;;;;;;;;;;5063830;28;20180;-42
2021/01/20 06:05:19;;;;;;;6.77;6.23;;;;;;;;;;5064451;28;20179;-43
2021/01/20 06:07:45;;;;;;;7.23;6.63;;;;;;;;;;5058400;28;20958;-42
2021/01/20 06:10:10;;;;;;;7.80;7.10;;;;;;;;;;5063672;28;20523;-42
2021/01/20 06:12:35;;;;;;;6.90;6.40;;;;;;;;;;5064658;28;20186;-43
2021/01/20 06:15:01;;;;;;;7.47;6.80;;;;;;;;;;5061806;28;20601;-43
2021/01/20 06:17:30;;;;;;;6.47;5.93;;;;;;;;;;5070454;28;20206;-43
2021/01/20 06:19:57;;;;;;;6.80;6.20;;;;;;;;;;5065933;28;20185;-43
2021/01/20 06:22:23;;;;;;;5.73;5.30;;;;;;;;;;5063151;28;20632;-42
2021/01/20 06:24:49;;;;;;;6.80;6.10;;;;;;;;;;5063207;28;21246;-43
2021/01/20 06:27:27;;;;;;;4.90;4.60;;;;;;;;;;5059115;28;20179;-42
2021/01/20 06:29:58;;;;;;;6.10;5.60;;;;;;;;;;5057226;28;20590;-43
2021/01/20 06:32:25;;;;;;;4.60;4.20;;;;;;;;;;5059217;28;21258;-42
2021/01/20 06:34:53;;;;;;;4.20;3.90;;;;;;;;;;5064770;28;20614;-43
2021/01/20 06:37:38;;;;;;;4.27;3.93;;;;;;;;;;5063179;28;20658;-43
2021/01/20 06:40:23;;;;;;;5.70;4.60;;;;;;;;;;5058712;28;20593;-43
2021/01/20 06:42:52;;;;;;;2.90;2.80;;;;;;;;;;5061168;28;21158;-42
2021/01/20 06:45:22;;;;;;;4.00;3.70;;;;;;;;;;5066130;28;20853;-43
2021/01/20 06:47:59;;;;;;;3.17;2.87;;;;;;;;;;5060306;28;20605;-42
2021/01/20 06:50:25;;;;;;;2.93;2.73;;;;;;;;;;5059934;28;20590;-43
2021/01/20 06:53:03;;;;;;;3.30;3.00;;;;;;;;;;5064337;28;21168;-43
2021/01/20 06:55:35;;;;;;;3.10;2.80;;;;;;;;;;5064228;28;20191;-43
2021/01/20 06:58:19;;;;;;;2.53;2.33;;;;;;;;;;5063342;28;20660;-43
2021/01/20 07:01:00;;;;;;;2.77;2.57;;;;;;;;;;5065857;28;20624;-43
2021/01/20 07:03:44;;;;;;;2.03;1.93;;;;;;;;;;5066409;28;20701;-43
2021/01/20 07:06:28;;;;;;;2.57;2.37;;;;;;;;;;5071776;28;20655;-43
2021/01/20 07:08:53;;;;;;;2.63;2.43;;;;;;;;;;5069449;28;20617;-43
2021/01/20 07:11:18;;;;;;;2.20;2.10;;;;;;;;;;5061767;28;20808;-42
2021/01/20 07:13:44;;;;;;;2.20;2.10;;;;;;;;;;5065143;28;20578;-42
2021/01/20 07:16:10;;;;;;;2.60;2.40;;;;;;;;;;5059730;28;20199;-43
2021/01/20 07:18:43;;;;;;;2.30;2.20;;;;;;;;;;5066659;28;20214;-43
2021/01/20 07:21:08;;;;;;;2.30;2.20;;;;;;;;;;5071993;28;20681;-42
2021/01/20 07:23:34;;;;;;;2.93;2.73;;;;;;;;;;5066177;28;20739;-43
2021/01/20 07:26:02;;;;;;;2.70;2.60;;;;;;;;;;5068594;28;20585;-43
2021/01/20 07:28:28;;;;;;;2.30;2.10;;;;;;;;;;5066900;28;21539;-42
2021/01/20 07:31:03;;;;;;;2.50;2.22;;;;;;;;;;5062003;28;20589;-43
2021/01/20 07:33:28;;;;;;;2.67;2.47;;;;;;;;;;5065317;28;20257;-43
2021/01/20 07:35:53;;;;;;;2.10;2.00;;;;;;;;;;5071174;28;20611;-43
2021/01/20 07:38:18;;;;;;;2.13;2.03;;;;;;;;;;5069398;28;20658;-43
2021/01/20 07:40:44;;;;;;;2.40;2.20;;;;;;;;;;5066136;28;20182;-42
2021/01/20 07:43:22;;;;;;;2.37;2.27;;;;;;;;;;5068887;28;20195;-43
2021/01/20 07:45:48;;;;;;;2.80;2.60;;;;;;;;;;5071638;28;20174;-43
2021/01/20 07:48:14;;;;;;;5.53;2.77;;;;;;;;;;5056556;28;21054;-43
2021/01/20 07:50:40;;;;;;;4.10;3.70;;;;;;;;;;5071744;28;20667;-43
2021/01/20 07:53:06;;;;;;;3.30;3.00;;;;;;;;;;5064852;28;20171;-42
2021/01/20 07:55:31;;;;;;;3.20;2.83;;;;;;;;;;5069703;28;20626;-42
2021/01/20 07:57:57;;;;;;;2.60;2.17;;;;;;;;;;5069151;28;20200;-42
2021/01/20 08:00:22;;;;;;;2.00;1.90;;;;;;;;;;5066713;28;20183;-42
2021/01/20 08:02:47;;;;;;;2.43;2.23;;;;;;;;;;5071012;28;20577;-42
2021/01/20 08:05:13;;;;;;;4.10;3.77;;;;;;;;;;5070855;28;20185;-42
2021/01/20 08:07:38;;;;;;;7.63;5.63;;;;;;;;;;5071616;28;20709;-42
2021/01/20 08:10:03;;;;;;;6.20;5.70;;;;;;;;;;5066695;28;20263;-42
2021/01/20 08:12:29;;;;;;;5.53;5.03;;;;;;;;;;5068244;28;20180;-43
2021/01/20 08:14:56;;;;;;;5.47;4.97;;;;;;;;;;5058571;28;20191;-44
2021/01/20 08:17:21;;;;;;;5.03;4.60;;;;;;;;;;5067650;28;20611;-42
2021/01/20 08:19:48;;;;;;;4.97;4.60;;;;;;;;;;5068905;28;20608;-42
2021/01/20 08:22:14;;;;;;;7.30;6.60;;;;;;;;;;5068804;28;20189;-41
2021/01/20 08:24:46;;;;;;;6.07;5.57;;;;;;;;;;5069664;28;20672;-47
2021/01/20 08:27:12;;;;;;;5.83;5.33;;;;;;;;;;5063331;28;21139;-42
2021/01/20 08:29:47;;;;;;;6.00;5.50;;;;;;;;;;5065458;28;20676;-41
2021/01/20 08:32:12;;;;;;;4.47;4.10;;;;;;;;;;5068897;28;20269;-42
2021/01/20 08:34:39;;;;;;;5.13;4.73;;;;;;;;;;5066311;28;20629;-41
2021/01/20 08:37:05;;;;;;;3.57;3.27;;;;;;;;;;5070093;28;20186;-42
2021/01/20 08:39:31;;;;;;;2.93;2.73;;;;;;;;;;5065087;28;21135;-42
2021/01/20 08:42:14;;;;;;;2.70;2.50;;;;;;;;;;5069423;28;20692;-42
2021/01/20 08:44:40;;;;;;;3.13;2.83;;;;;;;;;;5068303;28;20609;-41
2021/01/20 08:47:05;;;;;;;2.70;2.50;;;;;;;;;;5061305;28;21253;-42
2021/01/20 08:49:30;;;;;;;3.23;2.80;;;;;;;;;;5062330;28;20214;-42
2021/01/20 08:51:56;;;;;;;3.90;3.60;;;;;;;;;;5067583;28;20189;-42
2021/01/20 08:54:22;;;;;;;2.80;2.60;;;;;;;;;;5061912;28;20706;-42
2021/01/20 08:56:47;;;;;;;5.20;3.00;;;;;;;;;;5061932;28;20597;-42
2021/01/20 08:59:12;;;;;;;2.20;2.10;;;;;;;;;;5062321;28;20210;-42
2021/01/20 09:01:37;;;;;;;2.63;2.42;;;;;;;;;;5059049;28;20179;-42
2021/01/20 09:04:02;;;;;;;2.47;2.27;;;;;;;;;;5059194;28;20201;-42
2021/01/20 09:06:28;;;;;;;2.00;1.90;;;;;;;;;;5069484;28;20230;-42
2021/01/20 09:08:54;;;;;;;2.17;2.07;;;;;;;;;;5068102;28;20195;-43
2021/01/20 09:11:19;;;;;;;2.30;2.20;;;;;;;;;;5067954;28;20175;-43
2021/01/20 09:13:44;;;;;;;2.50;2.30;;;;;;;;;;5070545;28;20171;-42
2021/01/20 09:16:10;;;;;;;2.60;2.00;;;;;;;;;;5069177;28;20178;-42
2021/01/20 09:18:35;;;;;;;3.27;2.20;;;;;;;;;;5067803;28;20207;-42
2021/01/20 09:21:00;;;;;;;2.40;2.20;;;;;;;;;;5067673;28;20257;-42
2021/01/20 09:23:26;;;;;;;3.20;2.20;;;;;;;;;;5068888;28;20183;-42
2021/01/20 09:25:51;;;;;;;2.07;1.97;;;;;;;;;;5062528;28;20213;-41
2021/01/20 09:28:16;;;;;;;2.87;2.33;;;;;;;;;;5064462;28;20647;-42
2021/01/20 09:30:41;;;;;;;2.70;2.50;;;;;;;;;;5068231;28;20281;-42
2021/01/20 09:33:07;;;;;;;2.20;2.00;;;;;;;;;;5069970;28;20536;-42
2021/01/20 09:35:32;;;;;;;2.00;1.90;;;;;;;;;;5070091;28;20214;-42
2021/01/20 09:37:57;;;;;;;2.83;2.63;;;;;;;;;;5061310;28;20298;-42
2021/01/20 09:40:23;;;;;;;2.50;2.30;;;;;;;;;;5061529;28;20196;-42
2021/01/20 09:42:49;;;;;;;2.83;2.50;;;;;;;;;;5069758;28;20178;-42
2021/01/20 09:45:15;;;;;;;2.87;2.67;;;;;;;;;;5066189;28;20174;-41
2021/01/20 09:47:43;;;;;;;2.73;2.53;;;;;;;;;;5065704;28;20208;-42
2021/01/20 09:50:09;;;;;;;3.20;2.70;;;;;;;;;;5065276;28;20602;-42
2021/01/20 09:52:35;;;;;;;2.40;2.20;;;;;;;;;;5063760;28;20672;-42
2021/01/20 09:55:00;;;;;;;3.10;2.90;;;;;;;;;;5069594;28;20698;-42
2021/01/20 09:57:26;;;;;;;2.90;2.70;;;;;;;;;;5076251;28;20220;-42
2021/01/20 09:59:51;;;;;;;4.17;3.63;;;;;;;;;;5067771;28;20178;-42
2021/01/20 10:02:16;;;;;;;4.70;4.30;;;;;;;;;;5069520;28;20181;-42
2021/01/20 10:04:42;;;;;;;4.83;4.33;;;;;;;;;;5061103;28;20199;-42
2021/01/20 10:07:07;;;;;;;4.40;4.00;;;;;;;;;;5068857;28;20668;-42
2021/01/20 10:09:33;;;;;;;4.17;3.83;;;;;;;;;;5060281;28;20541;-42
2021/01/20 10:11:58;;;;;;;4.87;4.47;;;;;;;;;;5061654;28;20182;-41
2021/01/20 10:14:23;;;;;;;5.20;4.53;;;;;;;;;;5069057;28;20614;-41
2021/01/20 10:16:48;;;;;;;4.32;3.80;;;;;;;;;;5069791;28;20179;-42
2021/01/20 10:19:14;;;;;;;5.60;4.20;;;;;;;;;;5066837;28;20205;-42
2021/01/20 10:21:40;;;;;;;5.37;4.87;;;;;;;;;;5069298;28;20179;-42
2021/01/20 10:24:05;;;;;;;5.47;4.33;;;;;;;;;;5069503;28;20654;-43
2021/01/20 10:26:31;;;;;;;4.47;4.03;;;;;;;;;;5061184;28;20230;-42
2021/01/20 10:28:56;;;;;;;5.28;4.78;;;;;;;;;;5064987;28;20585;-42
2021/01/20 10:31:21;;;;;;;6.72;3.90;;;;;;;;;;5059018;28;20357;-42
2021/01/20 10:33:46;;;;;;;4.85;4.45;;;;;;;;;;5061934;28;20183;-43
2021/01/20 10:36:11;;;;;;;4.90;4.50;;;;;;;;;;5065167;28;20206;-42
2021/01/20 10:38:36;;;;;;;4.28;3.97;;;;;;;;;;5072844;28;20212;-42
2021/01/20 10:41:01;;;;;;;5.55;4.53;;;;;;;;;;5071294;28;20313;-43
2021/01/20 10:43:26;;;;;;;5.32;4.82;;;;;;;;;;5073523;28;20172;-43
2021/01/20 10:45:52;;;;;;;5.10;4.50;;;;;;;;;;5065369;28;20177;-42
2021/01/20 10:48:17;;;;;;;4.60;4.20;;;;;;;;;;5073061;28;20180;-43
2021/01/20 10:50:42;;;;;;;4.78;4.35;;;;;;;;;;5067726;28;20176;-42
2021/01/20 10:53:07;;;;;;;5.20;4.50;;;;;;;;;;5068157;28;20257;-42
2021/01/20 10:55:32;;;;;;;8.40;4.70;;;;;;;;;;5071578;28;20809;-42
2021/01/20 10:57:57;;;;;;;4.22;3.83;;;;;;;;;;5068706;28;20262;-42
2021/01/20 11:00:23;;;;;;;4.50;4.05;;;;;;;;;;5066819;28;20250;-41
2021/01/20 11:02:48;;;;;;;4.10;3.77;;;;;;;;;;5071947;28;20548;-42
2021/01/20 11:05:13;;;;;;;5.57;5.07;;;;;;;;;;5071863;28;20236;-42
2021/01/20 11:07:38;;;;;;;5.70;4.40;;;;;;;;;;5072641;28;20184;-42
2021/01/20 11:10:05;;;;;;;5.67;4.03;;;;;;;;;;5071259;28;20632;-42
2021/01/20 11:12:30;;;;;;;6.03;4.40;;;;;;;;;;5070887;28;20295;-42
2021/01/20 11:14:55;;;;;;;4.87;4.30;;;;;;;;;;5073901;28;20827;-42
2021/01/20 11:17:20;;;;;;;6.37;4.30;;;;;;;;;;5073271;28;20177;-42
2021/01/20 11:19:45;;;;;;;6.23;4.93;;;;;;;;;;5070612;28;20169;-42
2021/01/20 11:22:11;;;;;;;5.55;4.10;;;;;;;;;;5065357;28;20584;-43
2021/01/20 11:24:36;;;;;;;4.77;4.20;;;;;;;;;;5067691;28;20586;-43
2021/01/20 11:27:01;;;;;;;3.73;3.43;;;;;;;;;;5072930;28;20268;-42
2021/01/20 11:29:26;;;;;;;5.70;4.00;;;;;;;;;;5069905;28;20309;-42
2021/01/20 11:31:51;;;;;;;4.30;3.90;;;;;;;;;;5072261;28;20632;-43
2021/01/20 11:34:17;;;;;;;4.00;3.60;;;;;;;;;;5070506;28;20226;-42
2021/01/20 11:36:42;;;;;;;4.03;3.50;;;;;;;;;;5068957;28;20188;-42
2021/01/20 11:39:07;;;;;;;4.20;3.90;;;;;;;;;;5070523;28;20203;-42
2021/01/20 11:41:32;;;;;;;7.20;4.25;;;;;;;;;;5069489;28;20711;-43
2021/01/20 11:43:57;;;;;;;4.70;4.30;;;;;;;;;;5069718;28;20260;-43
2021/01/20 11:46:22;;;;;;;4.85;4.45;;;;;;;;;;5064741;28;20193;-43
2021/01/20 11:48:48;;;;;;;4.70;4.30;;;;;;;;;;5068482;28;20656;-43
2021/01/20 11:51:13;;;;;;;4.77;4.27;;;;;;;;;;5062635;28;20219;-43
2021/01/20 11:53:38;;;;;;;4.73;3.93;;;;;;;;;;5071418;28;20189;-43
2021/01/20 11:56:04;;;;;;;10.30;7.23;;;;;;;;;;5069998;28;20194;-43
2021/01/20 11:58:29;;;;;;;7.33;6.27;;;;;;;;;;5065007;28;20282;-43
2021/01/20 12:00:54;;;;;;;6.40;5.33;;;;;;;;;;5064475;28;20172;-43
2021/01/20 12:03:20;;;;;;;4.65;4.25;;;;;;;;;;5064702;28;20644;-43
2021/01/20 12:05:45;;;;;;;4.80;4.00;;;;;;;;;;5062508;28;20173;-43
2021/01/20 12:08:10;;;;;;;4.40;4.00;;;;;;;;;;5066765;28;20176;-43
2021/01/20 12:10:35;;;;;;;6.85;5.07;;;;;;;;;;5070251;28;20273;-43
2021/01/20 12:13:00;;;;;;;4.80;4.30;;;;;;;;;;5070564;28;20236;-42
2021/01/20 12:15:25;;;;;;;4.73;4.13;;;;;;;;;;5071622;28;20231;-43
2021/01/20 12:17:51;;;;;;;5.00;4.57;;;;;;;;;;5071261;28;20201;-43
2021/01/20 12:20:16;;;;;;;7.35;4.43;;;;;;;;;;5068498;28;20188;-43
2021/01/20 12:22:41;;;;;;;4.90;4.30;;;;;;;;;;5074638;28;20186;-43
2021/01/20 12:25:07;;;;;;;3.58;3.28;;;;;;;;;;5069746;28;20230;-43
2021/01/20 12:27:32;;;;;;;5.23;4.30;;;;;;;;;;5071291;28;20185;-42
2021/01/20 12:30:00;;;;;;;6.67;5.13;;;;;;;;;;5069957;28;20175;-43
2021/01/20 12:32:26;;;;;;;5.03;4.63;;;;;;;;;;5066841;28;20171;-42
2021/01/20 12:34:51;;;;;;;5.17;4.67;;;;;;;;;;5070984;28;20685;-41
2021/01/20 12:37:17;;;;;;;4.70;4.30;;;;;;;;;;5070468;28;21148;-42
2021/01/20 12:39:42;;;;;;;4.10;3.70;;;;;;;;;;5070683;28;20208;-42
2021/01/20 12:42:07;;;;;;;4.20;3.77;;;;;;;;;;5066742;28;20530;-42
2021/01/20 12:44:32;;;;;;;5.87;4.50;;;;;;;;;;5071118;28;20181;-42
2021/01/20 12:46:57;;;;;;;5.63;4.63;;;;;;;;;;5071080;28;20774;-41
2021/01/20 12:49:26;;;;;;;5.88;5.38;;;;;;;;;;5064834;28;20175;-41
2021/01/20 12:51:51;;;;;;;5.07;4.67;;;;;;;;;;5061037;28;20178;-42
2021/01/20 12:54:16;;;;;;;6.13;5.15;;;;;;;;;;5069042;28;20656;-41
2021/01/20 12:56:41;;;;;;;6.68;5.72;;;;;;;;;;5070910;28;20191;-41
2021/01/20 12:59:06;;;;;;;6.03;5.40;;;;;;;;;;5069470;28;20197;-42
2021/01/20 13:01:31;;;;;;;5.75;5.20;;;;;;;;;;5071878;28;20185;-41
2021/01/20 13:03:56;;;;;;;6.30;5.00;;;;;;;;;;5070755;28;20176;-42
2021/01/20 13:06:22;;;;;;;5.20;4.70;;;;;;;;;;5070067;28;20234;-42
2021/01/20 13:08:48;;;;;;;6.90;5.22;;;;;;;;;;5069728;28;20182;-43
2021/01/20 13:11:13;;;;;;;5.93;5.33;;;;;;;;;;5066200;28;20643;-42
2021/01/20 13:13:38;;;;;;;9.18;4.93;;;;;;;;;;5070486;28;20606;-42
2021/01/20 13:16:03;;;;;;;6.47;5.30;;;;;;;;;;5069957;28;20253;-42
2021/01/20 13:18:31;;;;;;;5.60;5.07;;;;;;;;;;5064888;28;20286;-41
2021/01/20 13:20:56;;;;;;;5.87;5.27;;;;;;;;;;5068685;28;20656;-40
2021/01/20 13:23:21;;;;;;;4.70;4.30;;;;;;;;;;5065638;28;21175;-41
2021/01/20 13:25:47;;;;;;;5.85;4.70;;;;;;;;;;5070303;28;20213;-43
2021/01/20 13:28:12;;;;;;;6.18;4.90;;;;;;;;;;5069835;28;20229;-43
2021/01/20 13:30:38;;;;;;;5.95;4.22;;;;;;;;;;5059601;28;20212;-43
2021/01/20 13:33:04;;;;;;;4.40;4.00;;;;;;;;;;5066615;28;20182;-67
2021/01/20 13:35:29;;;;;;;5.43;4.33;;;;;;;;;;5069972;28;20608;-61
2021/01/20 13:37:54;;;;;;;4.47;4.07;;;;;;;;;;5069193;28;20194;-61
2021/01/20 13:40:19;;;;;;;6.87;3.97;;;;;;;;;;5067727;28;20168;-62
2021/01/20 13:42:44;;;;;;;5.93;4.03;;;;;;;;;;5069605;28;20171;-62
2021/01/20 13:45:39;;;;;;;10.10;4.32;;;;;;;;;;5072432;28;20170;-62
2021/01/20 13:48:04;;;;;;;8.77;4.43;;;;;;;;;;5057363;28;20491;-62
2021/01/20 13:50:29;;;;;;;4.70;4.20;;;;;;;;;;5068012;28;21262;-63
2021/01/20 13:52:55;;;;;;;5.33;4.90;;;;;;;;;;5065925;28;20195;-62
2021/01/20 13:55:20;;;;;;;5.50;5.00;;;;;;;;;;5066859;28;20191;-63
2021/01/20 13:57:45;;;;;;;9.30;4.70;;;;;;;;;;5066400;28;20246;-63
2021/01/20 14:00:10;;;;;;;6.07;4.93;;;;;;;;;;5066855;28;20170;-62
2021/01/20 14:02:36;;;;;;;4.63;4.20;;;;;;;;;;5069349;28;20228;-61
2021/01/20 14:05:01;;;;;;;5.30;4.47;;;;;;;;;;5060002;28;20649;-62
2021/01/20 14:07:27;;;;;;;5.10;4.40;;;;;;;;;;5060697;28;20647;-63
2021/01/20 14:09:52;;;;;;;4.77;4.27;;;;;;;;;;5067108;28;20171;-62
2021/01/20 14:12:17;;;;;;;6.47;4.00;;;;;;;;;;5066770;28;20662;-63
2021/01/20 14:14:42;;;;;;;4.57;4.10;;;;;;;;;;5069048;28;20259;-63
2021/01/20 14:17:08;;;;;;;4.73;4.20;;;;;;;;;;5068114;28;20180;-63
2021/01/20 14:19:33;;;;;;;4.70;4.03;;;;;;;;;;5067162;28;20224;-62
2021/01/20 14:21:58;;;;;;;9.65;4.78;;;;;;;;;;5058947;28;20662;-63
2021/01/20 14:24:24;;;;;;;11.00;4.53;;;;;;;;;;5068302;28;20213;-63
2021/01/20 14:26:49;;;;;;;4.40;4.00;;;;;;;;;;5069073;28;20197;-63
2021/01/20 14:29:15;;;;;;;5.07;4.33;;;;;;;;;;5059483;28;20190;-63
2021/01/20 14:31:40;;;;;;;4.90;4.20;;;;;;;;;;5065389;28;20175;-64
2021/01/20 14:34:05;;;;;;;6.05;4.40;;;;;;;;;;5068813;28;20611;-64
2021/01/20 14:36:30;;;;;;;6.07;4.73;;;;;;;;;;5068404;28;20181;-63
2021/01/20 14:38:56;;;;;;;4.97;4.20;;;;;;;;;;5066848;28;20202;-63